createdAt,value
2023-04-15T00:01:21.305Z,84.20
2023-04-15T00:03:52.790Z,84.60
2023-04-15T00:06:23.851Z,84.60
2023-04-15T00:08:52.952Z,84.30
2023-04-15T00:11:21.924Z,84.50
2023-04-15T00:13:51.450Z,84.60
2023-04-15T00:16:20.682Z,84.50
2023-04-15T00:19:04.793Z,84.40
2023-04-15T00:21:35.629Z,84.00
2023-04-15T00:24:04.805Z,83.80
2023-04-15T00:26:33.939Z,83.70
2023-04-15T00:29:03.078Z,83.30
2023-04-15T00:31:33.141Z,83.30
2023-04-15T00:34:02.800Z,83.30
2023-04-15T00:36:31.931Z,83.30
2023-04-15T00:39:03.012Z,83.20
2023-04-15T00:41:31.987Z,83.00
2023-04-15T00:44:02.551Z,82.70
2023-04-15T00:46:33.294Z,82.80
2023-04-15T00:49:02.908Z,82.70
2023-04-15T00:51:33.798Z,82.60
2023-04-15T00:54:04.930Z,82.80
2023-04-15T00:56:38.306Z,83.10
2023-04-15T00:59:08.449Z,83.10
2023-04-15T01:01:38.720Z,83.30
2023-04-15T01:04:10.512Z,83.40
2023-04-15T01:06:39.888Z,83.50
2023-04-15T01:09:10.385Z,83.80
2023-04-15T01:11:41.435Z,84.00
2023-04-15T01:14:11.658Z,84.10
2023-04-15T01:16:41.378Z,84.50
2023-04-15T01:19:12.659Z,84.90
2023-04-15T01:22:00.576Z,85.20
2023-04-15T01:24:33.402Z,85.50
2023-04-15T01:27:04.934Z,85.40
2023-04-15T01:29:34.834Z,85.20
2023-04-15T01:32:03.810Z,85.50
2023-04-15T01:34:35.509Z,85.70
2023-04-15T01:37:04.945Z,86.20
2023-04-15T01:39:33.906Z,86.80
2023-04-15T01:42:04.308Z,87.40
2023-04-15T01:44:33.501Z,87.80
2023-04-15T01:47:02.482Z,88.30
2023-04-15T01:49:31.577Z,88.60
2023-04-15T01:52:19.030Z,89.00
2023-04-15T01:54:48.154Z,89.20
2023-04-15T01:57:18.740Z,89.60
2023-04-15T01:59:47.821Z,89.90
2023-04-15T02:02:17.618Z,90.00
2023-04-15T02:04:46.742Z,90.00
2023-04-15T02:07:15.701Z,90.10
2023-04-15T02:09:46.339Z,90.20
2023-04-15T02:12:15.782Z,90.40
2023-04-15T02:14:46.101Z,90.50
2023-04-15T02:17:15.108Z,90.60
2023-04-15T02:20:02.708Z,90.60
2023-04-15T02:22:33.879Z,90.60
2023-04-15T02:25:21.794Z,90.60
2023-04-15T02:27:50.937Z,91.10
2023-04-15T02:30:24.120Z,91.10
2023-04-15T02:32:53.207Z,91.30
2023-04-15T02:35:22.168Z,91.60
2023-04-15T02:37:51.944Z,91.70
2023-04-15T02:40:21.185Z,91.70
2023-04-15T02:42:50.407Z,91.70
2023-04-15T02:45:42.548Z,91.80
2023-04-15T02:48:11.901Z,91.90
2023-04-15T02:50:41.031Z,91.90
2023-04-15T02:53:12.156Z,91.90
2023-04-15T02:55:43.053Z,91.90
2023-04-15T02:58:12.272Z,91.90
2023-04-15T03:00:42.962Z,91.90
2023-04-15T03:03:12.151Z,91.70
2023-04-15T03:05:41.312Z,91.70
2023-04-15T03:08:10.417Z,91.70
2023-04-15T03:10:39.382Z,91.60
2023-04-15T03:13:09.342Z,91.50
2023-04-15T03:15:38.719Z,91.60
2023-04-15T03:18:09.219Z,91.70
2023-04-15T03:20:38.266Z,91.70
2023-04-15T03:23:27.595Z,91.70
2023-04-15T03:26:00.153Z,91.70
2023-04-15T03:28:31.002Z,91.80
2023-04-15T03:31:01.318Z,91.90
2023-04-15T03:33:32.048Z,92.20
2023-04-15T03:36:01.354Z,92.00
2023-04-15T03:38:30.357Z,92.00
2023-04-15T03:40:59.686Z,92.00
2023-04-15T03:43:28.995Z,92.00
2023-04-15T03:45:59.027Z,92.00
2023-04-15T03:48:28.925Z,92.00
2023-04-15T03:50:59.358Z,92.10
2023-04-15T03:53:28.438Z,92.20
2023-04-15T03:55:57.504Z,92.20
2023-04-15T03:58:26.748Z,92.30
2023-04-15T04:00:56.490Z,92.30
2023-04-15T04:03:26.069Z,92.20
2023-04-15T04:05:55.988Z,92.10
2023-04-15T04:08:27.767Z,92.20
2023-04-15T04:10:57.202Z,92.30
2023-04-15T04:13:26.419Z,92.40
2023-04-15T04:15:55.687Z,92.70
2023-04-15T04:18:24.841Z,92.20
2023-04-15T04:21:02.106Z,92.20
2023-04-15T04:23:32.673Z,92.10
2023-04-15T04:26:01.731Z,92.00
2023-04-15T04:28:30.745Z,91.90
2023-04-15T04:30:59.890Z,91.90
2023-04-15T04:33:28.936Z,91.80
2023-04-15T04:35:57.900Z,91.70
2023-04-15T04:38:27.055Z,91.50
2023-04-15T04:40:57.605Z,91.40
2023-04-15T04:43:27.345Z,91.10
2023-04-15T04:45:56.732Z,90.80
2023-04-15T04:48:29.315Z,90.70
2023-04-15T04:51:16.914Z,90.70
2023-04-15T04:53:45.964Z,90.60
2023-04-15T04:56:16.607Z,90.40
2023-04-15T04:58:46.131Z,90.20
2023-04-15T05:01:15.117Z,90.00
2023-04-15T05:03:44.271Z,89.60
2023-04-15T05:06:13.530Z,89.20
2023-04-15T05:08:42.692Z,88.80
2023-04-15T05:11:11.658Z,88.50
2023-04-15T05:13:42.540Z,88.30
2023-04-15T05:16:11.919Z,88.10
2023-04-15T05:18:40.968Z,87.70
2023-04-15T05:21:10.204Z,87.60
2023-04-15T05:23:58.067Z,87.30
2023-04-15T05:26:27.814Z,87.30
2023-04-15T05:28:58.316Z,86.60
2023-04-15T05:31:27.560Z,86.20
2023-04-15T05:33:56.704Z,85.90
2023-04-15T05:36:26.215Z,84.40
2023-04-15T05:38:55.253Z,82.40
2023-04-15T05:41:24.248Z,81.60
2023-04-15T05:43:53.220Z,80.70
2023-04-15T05:46:23.985Z,80.20
2023-04-15T05:49:12.276Z,80.10
2023-04-15T05:51:41.641Z,80.00
2023-04-15T05:54:11.040Z,79.90
2023-04-15T05:56:39.969Z,78.80
2023-04-15T05:59:08.944Z,77.70
2023-04-15T06:01:42.142Z,77.10
2023-04-15T06:04:11.837Z,76.90
2023-04-15T06:06:46.263Z,77.00
2023-04-15T06:09:16.143Z,76.90
2023-04-15T06:11:45.105Z,77.00
2023-04-15T06:14:14.300Z,77.10
2023-04-15T06:16:44.872Z,77.20
2023-04-15T06:19:14.861Z,77.00
2023-04-15T06:22:02.796Z,76.50
2023-04-15T06:24:33.301Z,75.80
2023-04-15T06:27:02.716Z,74.80
2023-04-15T06:29:31.758Z,75.10
2023-04-15T06:32:26.997Z,75.00
2023-04-15T06:35:23.625Z,74.70
2023-04-15T06:37:53.539Z,74.60
2023-04-15T06:40:22.526Z,74.80
2023-04-15T06:42:55.676Z,74.60
2023-04-15T06:45:24.728Z,74.10
2023-04-15T06:47:55.380Z,73.80
2023-04-15T06:50:24.634Z,73.70
2023-04-15T06:52:53.775Z,73.50
2023-04-15T06:55:22.938Z,73.40
2023-04-15T06:57:52.205Z,73.00
2023-04-15T07:00:21.596Z,72.70
2023-04-15T07:02:50.678Z,72.70
2023-04-15T07:05:21.519Z,73.00
2023-04-15T07:07:50.786Z,72.80
2023-04-15T07:10:19.746Z,72.80
2023-04-15T07:12:51.026Z,72.50
2023-04-15T07:15:20.200Z,71.70
2023-04-15T07:17:49.394Z,71.20
2023-04-15T07:20:18.701Z,70.90
2023-04-15T07:22:49.293Z,71.30
2023-04-15T07:25:19.425Z,70.20
2023-04-15T07:27:48.825Z,70.60
2023-04-15T07:30:18.177Z,70.10
2023-04-15T07:32:47.304Z,69.90
2023-04-15T07:35:16.408Z,69.60
2023-04-15T07:37:45.372Z,70.20
2023-04-15T07:40:16.450Z,70.90
2023-04-15T07:42:45.606Z,70.90
2023-04-15T07:45:14.530Z,71.90
2023-04-15T07:47:43.650Z,71.50
2023-04-15T07:50:12.825Z,71.50
2023-04-15T07:52:42.214Z,70.90
2023-04-15T07:55:12.510Z,70.80
2023-04-15T07:57:43.072Z,70.00
2023-04-15T08:00:13.065Z,69.80
2023-04-15T08:02:43.144Z,69.00
2023-04-15T08:05:12.956Z,69.10
2023-04-15T08:07:42.097Z,68.40
2023-04-15T08:10:12.206Z,67.80
2023-04-15T08:12:43.020Z,67.50
2023-04-15T08:15:13.314Z,67.50
2023-04-15T08:17:42.407Z,67.90
2023-04-15T08:20:12.262Z,67.60
2023-04-15T08:22:41.987Z,67.60
2023-04-15T08:25:11.547Z,67.80
2023-04-15T08:27:40.469Z,68.30
2023-04-15T08:30:12.061Z,68.00
2023-04-15T08:32:41.653Z,67.70
2023-04-15T08:35:11.196Z,68.00
2023-04-15T08:37:40.738Z,68.30
2023-04-15T08:40:11.095Z,68.50
2023-04-15T08:42:45.893Z,68.80
2023-04-15T08:45:16.545Z,68.80
2023-04-15T08:47:47.213Z,68.70
2023-04-15T08:50:17.539Z,69.10
2023-04-15T08:52:46.887Z,68.30
2023-04-15T08:55:17.070Z,68.20
2023-04-15T08:57:46.123Z,68.10
2023-04-15T09:00:18.256Z,67.70
2023-04-15T09:02:47.774Z,67.20
2023-04-15T09:05:17.777Z,66.50
2023-04-15T09:07:46.969Z,66.50
2023-04-15T09:10:16.043Z,65.80
2023-04-15T09:12:45.226Z,65.70
2023-04-15T09:15:16.637Z,65.20
2023-04-15T09:17:46.687Z,65.50
2023-04-15T09:20:18.966Z,65.10
2023-04-15T09:22:49.372Z,64.40
2023-04-15T09:25:29.326Z,64.00
2023-04-15T09:28:02.973Z,63.30
2023-04-15T09:30:33.709Z,63.00
2023-04-15T09:33:05.135Z,62.90
2023-04-15T09:35:34.449Z,62.40
2023-04-15T09:38:07.868Z,61.80
2023-04-15T09:40:37.864Z,61.00
2023-04-15T09:43:07.709Z,60.90
2023-04-15T09:45:38.655Z,61.30
2023-04-15T09:48:28.321Z,60.90
2023-04-15T09:51:00.768Z,59.80
2023-04-15T09:53:31.832Z,59.80
2023-04-15T09:56:02.811Z,59.80
2023-04-15T09:58:58.724Z,59.90
2023-04-15T10:01:29.400Z,59.60
2023-04-15T10:03:59.895Z,58.80
2023-04-15T10:06:29.497Z,58.80
2023-04-15T10:08:59.418Z,58.40
2023-04-15T10:11:31.792Z,58.20
2023-04-15T10:14:02.162Z,58.10
2023-04-15T10:16:36.263Z,58.60
2023-04-15T10:19:07.491Z,58.10
2023-04-15T10:21:37.159Z,57.70
2023-04-15T10:24:07.597Z,57.10
2023-04-15T10:26:37.111Z,56.50
2023-04-15T10:29:06.915Z,56.20
2023-04-15T10:31:38.724Z,56.20
2023-04-15T10:34:08.523Z,55.90
2023-04-15T10:36:37.891Z,56.20
2023-04-15T10:39:41.401Z,55.50
2023-04-15T10:42:11.775Z,55.30
2023-04-15T10:44:41.243Z,55.70
2023-04-15T10:47:15.740Z,55.90
2023-04-15T10:49:50.141Z,56.10
2023-04-15T10:52:23.911Z,56.00
2023-04-15T10:55:04.140Z,55.80
2023-04-15T10:57:39.444Z,55.70
2023-04-15T11:00:16.041Z,57.80
2023-04-15T11:02:48.904Z,56.10
2023-04-15T11:05:18.656Z,56.00
2023-04-15T11:07:53.747Z,56.30
2023-04-15T11:11:02.160Z,56.90
2023-04-15T11:13:33.383Z,56.50
2023-04-15T11:16:03.960Z,56.20
2023-04-15T11:18:35.453Z,56.40
2023-04-15T11:21:06.921Z,55.90
2023-04-15T11:23:39.076Z,55.00
2023-04-15T11:26:12.217Z,54.10
2023-04-15T11:28:46.319Z,53.50
2023-04-15T11:31:18.208Z,53.20
2023-04-15T11:33:55.931Z,52.70
2023-04-15T11:36:28.600Z,52.30
2023-04-15T11:38:59.734Z,52.00
2023-04-15T11:41:28.904Z,51.70
2023-04-15T11:43:57.842Z,51.60
2023-04-15T11:46:32.303Z,51.50
2023-04-15T11:49:04.992Z,51.30
2023-04-15T11:51:35.477Z,51.30
2023-04-15T11:54:05.777Z,51.50
2023-04-15T11:56:35.127Z,51.40
2023-04-15T11:59:04.684Z,51.50
2023-04-15T12:01:35.477Z,51.30
2023-04-15T12:04:13.846Z,51.30
2023-04-15T12:06:43.607Z,51.00
2023-04-15T12:09:14.146Z,50.80
2023-04-15T12:11:47.785Z,50.80
2023-04-15T12:14:36.909Z,50.80
2023-04-15T12:17:07.116Z,51.00
2023-04-15T12:19:42.690Z,50.80
2023-04-15T12:22:14.161Z,50.80
2023-04-15T12:24:48.164Z,50.90
2023-04-15T12:27:18.713Z,51.80
2023-04-15T12:29:47.896Z,52.00
2023-04-15T12:32:17.701Z,51.90
2023-04-15T12:34:53.238Z,51.90
2023-04-15T12:37:40.637Z,51.40
2023-04-15T12:40:11.198Z,51.40
2023-04-15T12:42:40.328Z,51.60
2023-04-15T12:45:09.846Z,51.70
2023-04-15T12:47:38.808Z,51.90
2023-04-15T12:50:10.677Z,52.10
2023-04-15T12:52:40.083Z,52.30
2023-04-15T12:55:12.519Z,52.20
2023-04-15T12:57:41.564Z,52.10
2023-04-15T13:00:19.041Z,51.80
2023-04-15T13:02:49.518Z,51.50
2023-04-15T13:05:23.019Z,51.40
2023-04-15T13:07:52.461Z,52.20
2023-04-15T13:10:22.296Z,51.70
2023-04-15T13:12:53.749Z,52.60
2023-04-15T13:15:22.888Z,52.00
2023-04-15T13:17:52.279Z,52.10
2023-04-15T13:20:22.833Z,52.00
2023-04-15T13:22:53.652Z,52.40
2023-04-15T13:25:22.886Z,52.60
2023-04-15T13:27:52.546Z,53.10
2023-04-15T13:30:21.681Z,53.40
2023-04-15T13:32:51.519Z,53.50
2023-04-15T13:35:22.205Z,53.60
2023-04-15T13:37:51.523Z,54.10
2023-04-15T13:40:21.965Z,54.00
2023-04-15T13:42:51.001Z,54.00
2023-04-15T13:45:20.185Z,54.50
2023-04-15T13:47:53.792Z,53.90
2023-04-15T13:50:24.897Z,53.40
2023-04-15T13:52:54.136Z,53.40
2023-04-15T13:55:25.460Z,53.40
2023-04-15T13:57:55.617Z,53.40
2023-04-15T14:00:24.731Z,53.40
2023-04-15T14:02:53.873Z,53.00
2023-04-15T14:05:24.467Z,52.90
2023-04-15T14:07:53.796Z,53.40
2023-04-15T14:10:22.805Z,53.50
2023-04-15T14:12:52.125Z,53.30
2023-04-15T14:15:21.184Z,53.20
2023-04-15T14:17:50.546Z,52.90
2023-04-15T14:20:19.769Z,53.40
2023-04-15T14:22:50.707Z,52.80
2023-04-15T14:25:30.392Z,53.50
2023-04-15T14:28:02.357Z,53.30
2023-04-15T14:30:31.371Z,53.20
2023-04-15T14:33:00.632Z,53.30
2023-04-15T14:35:29.728Z,53.10
2023-04-15T14:38:00.291Z,53.30
2023-04-15T14:40:29.550Z,53.40
2023-04-15T14:42:58.531Z,53.00
2023-04-15T14:45:27.499Z,53.10
2023-04-15T14:47:56.602Z,53.30
2023-04-15T14:50:25.731Z,53.10
2023-04-15T14:52:54.724Z,53.20
2023-04-15T14:55:25.271Z,53.80
2023-04-15T14:57:54.419Z,53.90
2023-04-15T15:00:23.566Z,53.80
2023-04-15T15:02:52.578Z,54.30
2023-04-15T15:05:21.977Z,54.30
2023-04-15T15:07:51.321Z,54.10
2023-04-15T15:10:32.859Z,54.80
2023-04-15T15:13:13.273Z,54.90
2023-04-15T15:15:42.809Z,55.10
2023-04-15T15:18:12.373Z,55.60
2023-04-15T15:20:41.484Z,55.80
2023-04-15T15:23:10.745Z,55.80
2023-04-15T15:25:39.996Z,55.50
2023-04-15T15:28:09.134Z,55.50
2023-04-15T15:30:39.510Z,55.40
2023-04-15T15:33:08.696Z,55.60
2023-04-15T15:35:37.813Z,56.30
2023-04-15T15:38:06.757Z,56.00
2023-04-15T15:40:36.174Z,55.80
2023-04-15T15:43:05.838Z,55.30
2023-04-15T15:45:35.059Z,55.40
2023-04-15T15:48:06.158Z,55.50
2023-04-15T15:50:54.604Z,55.70
2023-04-15T15:53:25.339Z,56.30
2023-04-15T15:55:54.530Z,56.30
2023-04-15T15:58:23.594Z,56.20
2023-04-15T16:00:52.722Z,56.40
2023-04-15T16:03:41.903Z,56.50
2023-04-15T16:06:11.214Z,56.60
2023-04-15T16:08:40.462Z,56.80
2023-04-15T16:11:09.583Z,57.10
2023-04-15T16:13:38.647Z,57.30
2023-04-15T16:16:08.013Z,57.60
2023-04-15T16:18:37.166Z,58.20
2023-04-15T16:21:08.017Z,58.30
2023-04-15T16:23:38.577Z,58.90
2023-04-15T16:26:08.037Z,59.30
2023-04-15T16:28:37.001Z,59.50
2023-04-15T16:31:06.265Z,59.90
2023-04-15T16:33:35.347Z,59.90
2023-04-15T16:36:04.436Z,60.00
2023-04-15T16:38:34.984Z,60.30
2023-04-15T16:41:04.339Z,60.50
2023-04-15T16:43:33.272Z,60.30
2023-04-15T16:46:02.477Z,60.20
2023-04-15T16:48:31.654Z,60.60
2023-04-15T16:51:00.754Z,61.60
2023-04-15T16:53:29.936Z,61.50
2023-04-15T16:56:00.360Z,61.30
2023-04-15T16:58:29.411Z,61.20
2023-04-15T17:00:59.753Z,61.20
2023-04-15T17:03:30.415Z,61.50
2023-04-15T17:05:59.522Z,61.60
2023-04-15T17:08:28.554Z,61.90
2023-04-15T17:11:00.182Z,62.30
2023-04-15T17:13:29.509Z,62.40
2023-04-15T17:15:58.479Z,62.90
2023-04-15T17:18:28.315Z,63.30
2023-04-15T17:20:57.425Z,63.80
2023-04-15T17:23:27.413Z,64.20
2023-04-15T17:25:56.536Z,64.50
2023-04-15T17:28:27.137Z,65.30
2023-04-15T17:31:15.044Z,66.10
2023-04-15T17:34:00.218Z,66.20
2023-04-15T17:36:39.301Z,66.60
2023-04-15T17:39:08.462Z,67.40
2023-04-15T17:41:37.695Z,67.80
2023-04-15T17:44:08.948Z,67.70
2023-04-15T17:46:38.166Z,68.20
2023-04-15T17:49:07.887Z,68.80
2023-04-15T17:51:38.302Z,69.20
2023-04-15T17:54:14.529Z,69.40
2023-04-15T17:56:44.696Z,69.80
2023-04-15T17:59:16.584Z,70.60
2023-04-15T18:01:50.726Z,71.30
2023-04-15T18:04:20.621Z,71.90
2023-04-15T18:06:49.809Z,72.40
2023-04-15T18:09:19.172Z,73.20
2023-04-15T18:11:49.241Z,72.90
2023-04-15T18:14:33.006Z,73.40
2023-04-15T18:17:04.131Z,74.00
2023-04-15T18:19:33.880Z,74.30
2023-04-15T18:22:03.477Z,74.70
2023-04-15T18:24:33.886Z,75.20
2023-04-15T18:27:07.778Z,75.40
2023-04-15T18:29:39.603Z,75.60
2023-04-15T18:32:08.742Z,75.60
2023-04-15T18:34:39.772Z,75.80
2023-04-15T18:37:08.845Z,76.40
2023-04-15T18:39:37.893Z,75.80
2023-04-15T18:42:06.871Z,75.60
2023-04-15T18:44:41.060Z,75.40
2023-04-15T18:47:12.612Z,75.20
2023-04-15T18:49:41.819Z,75.20
2023-04-15T18:52:11.771Z,75.60
2023-04-15T18:54:40.754Z,76.00
2023-04-15T18:57:10.067Z,76.20
2023-04-15T18:59:39.183Z,76.50
2023-04-15T19:02:09.162Z,76.90
2023-04-15T19:04:39.712Z,76.90
2023-04-15T19:07:09.944Z,77.00
2023-04-15T19:09:38.983Z,77.20
2023-04-15T19:12:08.137Z,77.50
2023-04-15T19:14:37.155Z,77.70
2023-04-15T19:17:06.492Z,77.90
2023-04-15T19:19:35.459Z,78.00
2023-04-15T19:22:06.416Z,78.00
2023-04-15T19:24:35.726Z,78.10
2023-04-15T19:27:04.981Z,78.10
2023-04-15T19:29:34.541Z,78.30
2023-04-15T19:32:03.496Z,78.40
2023-04-15T19:34:32.486Z,78.30
2023-04-15T19:37:02.145Z,78.60
2023-04-15T19:39:51.677Z,79.00
2023-04-15T19:42:20.732Z,79.30
2023-04-15T19:44:49.791Z,79.70
2023-04-15T19:47:18.766Z,80.10
2023-04-15T19:49:47.861Z,80.50
2023-04-15T19:52:16.961Z,80.60
2023-04-15T19:54:46.045Z,80.60
2023-04-15T19:57:16.835Z,80.80
2023-04-15T19:59:46.042Z,80.90
2023-04-15T20:02:15.198Z,81.00
2023-04-15T20:04:49.160Z,81.20
2023-04-15T20:07:20.140Z,81.60
2023-04-15T20:09:49.334Z,81.80
2023-04-15T20:12:49.233Z,82.00
2023-04-15T20:15:12.336Z,82.00
2023-04-15T20:17:41.548Z,82.60
2023-04-15T20:20:10.864Z,82.90
2023-04-15T20:22:39.836Z,83.00
2023-04-15T20:25:09.876Z,83.50
2023-04-15T20:27:40.633Z,84.10
2023-04-15T20:30:16.031Z,84.30
2023-04-15T20:32:45.414Z,84.40
2023-04-15T20:35:14.537Z,84.80
2023-04-15T20:37:45.509Z,85.30
2023-04-15T20:40:16.255Z,85.90
2023-04-15T20:42:46.859Z,86.30
2023-04-15T20:45:16.231Z,86.60
2023-04-15T20:47:45.341Z,86.90
2023-04-15T20:50:14.794Z,87.10
2023-04-15T20:52:44.024Z,87.40
2023-04-15T20:55:13.163Z,87.50
2023-04-15T20:57:43.212Z,87.70
2023-04-15T21:00:15.054Z,87.90
2023-04-15T21:02:44.662Z,88.10
2023-04-15T21:05:13.778Z,88.20
2023-04-15T21:07:42.771Z,88.20
2023-04-15T21:10:12.323Z,88.40
2023-04-15T21:12:41.439Z,88.60
2023-04-15T21:15:12.923Z,88.60
2023-04-15T21:17:42.122Z,88.40
2023-04-15T21:20:12.377Z,88.70
2023-04-15T21:22:41.606Z,88.70
2023-04-15T21:25:11.571Z,88.50
2023-04-15T21:27:41.624Z,88.50
2023-04-15T21:30:14.582Z,88.30
2023-04-15T21:32:44.089Z,88.70
2023-04-15T21:35:13.625Z,89.10
2023-04-15T21:37:42.681Z,89.60
2023-04-15T21:40:12.634Z,89.80
2023-04-15T21:42:42.591Z,90.10
2023-04-15T21:45:13.939Z,90.20
2023-04-15T21:48:01.183Z,90.30
2023-04-15T21:50:32.159Z,90.70
2023-04-15T21:53:01.317Z,90.50
2023-04-15T21:55:30.313Z,90.60
2023-04-15T21:57:59.473Z,90.60
2023-04-15T22:00:29.918Z,90.70
2023-04-15T22:02:59.103Z,90.90
2023-04-15T22:05:28.248Z,91.00
2023-04-15T22:07:58.413Z,91.10
2023-04-15T22:10:27.597Z,91.20
2023-04-15T22:13:01.504Z,91.30
2023-04-15T22:15:32.152Z,91.40
2023-04-15T22:18:01.334Z,91.60
2023-04-15T22:20:30.455Z,91.70
2023-04-15T22:22:59.539Z,91.90
2023-04-15T22:25:28.648Z,92.00
2023-04-15T22:27:57.601Z,92.10
2023-04-15T22:30:27.038Z,92.20
2023-04-15T22:32:57.522Z,92.30
2023-04-15T22:35:45.129Z,92.50
2023-04-15T22:38:14.150Z,92.50
2023-04-15T22:40:43.207Z,92.60
2023-04-15T22:43:12.511Z,92.60
2023-04-15T22:45:41.595Z,92.70
2023-04-15T22:48:12.188Z,92.80
2023-04-15T22:50:41.333Z,92.90
2023-04-15T22:53:10.299Z,93.00
2023-04-15T22:55:39.370Z,93.10
2023-04-15T22:58:08.358Z,93.20
2023-04-15T23:00:37.385Z,93.30
2023-04-15T23:03:06.764Z,93.40
2023-04-15T23:05:56.766Z,93.50
2023-04-15T23:08:25.781Z,93.60
2023-04-15T23:10:54.889Z,93.80
2023-04-15T23:13:23.804Z,94.00
2023-04-15T23:15:52.821Z,94.10
2023-04-15T23:18:22.017Z,94.30
2023-04-15T23:20:51.026Z,94.40
2023-04-15T23:23:21.436Z,94.50
2023-04-15T23:25:50.818Z,94.60
2023-04-15T23:28:19.840Z,94.70
2023-04-15T23:30:48.793Z,94.80
2023-04-15T23:33:17.843Z,94.90
2023-04-15T23:35:46.873Z,94.90
2023-04-15T23:38:15.861Z,95.00
2023-04-15T23:40:46.356Z,95.00
2023-04-15T23:43:15.580Z,94.90
2023-04-15T23:45:44.583Z,95.20
2023-04-15T23:48:13.543Z,94.80
2023-04-15T23:50:42.659Z,94.70
2023-04-15T23:53:11.666Z,94.60
2023-04-15T23:55:40.723Z,94.50
2023-04-15T23:58:12.024Z,94.40
